sensor_id;sensor_type;location;lat;lon;timestamp;P1;durP1;ratioP1;P2;durP2;ratioP2
24713;SDS011;12820;51.580;5.010;2022-11-20T00:01:47;21.83;;;11.18;;
24713;SDS011;12820;51.580;5.010;2022-11-20T00:06:50;22.40;;;11.18;;
24713;SDS011;12820;51.580;5.010;2022-11-20T00:11:52;23.02;;;10.80;;
24713;SDS011;12820;51.580;5.010;2022-11-20T00:16:54;24.15;;;11.38;;
24713;SDS011;12820;51.580;5.010;2022-11-20T00:21:56;23.13;;;10.57;;
24713;SDS011;12820;51.580;5.010;2022-11-20T00:26:58;24.85;;;11.68;;
24713;SDS011;12820;51.580;5.010;2022-11-20T00:32:00;23.27;;;11.25;;
24713;SDS011;12820;51.580;5.010;2022-11-20T00:37:02;23.88;;;11.95;;
24713;SDS011;12820;51.580;5.010;2022-11-20T00:42:04;20.88;;;10.85;;
24713;SDS011;12820;51.580;5.010;2022-11-20T00:47:06;24.75;;;11.80;;
24713;SDS011;12820;51.580;5.010;2022-11-20T00:52:08;24.13;;;11.55;;
24713;SDS011;12820;51.580;5.010;2022-11-20T00:57:10;24.35;;;11.27;;
24713;SDS011;12820;51.580;5.010;2022-11-20T01:02:12;26.40;;;11.90;;
24713;SDS011;12820;51.580;5.010;2022-11-20T01:07:14;24.25;;;11.57;;
24713;SDS011;12820;51.580;5.010;2022-11-20T01:12:17;24.23;;;11.90;;
24713;SDS011;12820;51.580;5.010;2022-11-20T01:17:19;26.08;;;12.15;;
24713;SDS011;12820;51.580;5.010;2022-11-20T01:22:21;24.75;;;12.07;;
24713;SDS011;12820;51.580;5.010;2022-11-20T01:27:23;27.02;;;12.85;;
24713;SDS011;12820;51.580;5.010;2022-11-20T01:32:25;23.25;;;11.70;;
24713;SDS011;12820;51.580;5.010;2022-11-20T01:37:27;23.35;;;11.77;;
24713;SDS011;12820;51.580;5.010;2022-11-20T01:42:29;23.73;;;11.82;;
24713;SDS011;12820;51.580;5.010;2022-11-20T01:48:03;26.35;;;12.68;;
24713;SDS011;12820;51.580;5.010;2022-11-20T01:53:07;25.58;;;13.50;;
24713;SDS011;12820;51.580;5.010;2022-11-20T01:58:12;27.17;;;13.13;;
24713;SDS011;12820;51.580;5.010;2022-11-20T02:03:16;23.60;;;12.57;;
24713;SDS011;12820;51.580;5.010;2022-11-20T02:08:20;25.15;;;12.52;;
24713;SDS011;12820;51.580;5.010;2022-11-20T02:13:23;25.13;;;12.88;;
24713;SDS011;12820;51.580;5.010;2022-11-20T02:29:09;26.00;;;12.63;;
24713;SDS011;12820;51.580;5.010;2022-11-20T02:34:11;24.65;;;12.80;;
24713;SDS011;12820;51.580;5.010;2022-11-20T02:39:13;26.85;;;13.10;;
24713;SDS011;12820;51.580;5.010;2022-11-20T02:44:18;27.33;;;13.25;;
24713;SDS011;12820;51.580;5.010;2022-11-20T02:49:21;23.88;;;12.18;;
24713;SDS011;12820;51.580;5.010;2022-11-20T02:54:24;25.27;;;12.73;;
24713;SDS011;12820;51.580;5.010;2022-11-20T02:59:26;25.90;;;13.18;;
24713;SDS011;12820;51.580;5.010;2022-11-20T03:04:28;30.45;;;12.95;;
24713;SDS011;12820;51.580;5.010;2022-11-20T03:09:30;23.48;;;12.88;;
24713;SDS011;12820;51.580;5.010;2022-11-20T03:14:32;26.95;;;13.25;;
24713;SDS011;12820;51.580;5.010;2022-11-20T03:19:36;28.00;;;14.25;;
24713;SDS011;12820;51.580;5.010;2022-11-20T03:24:38;25.85;;;12.68;;
24713;SDS011;12820;51.580;5.010;2022-11-20T03:29:40;23.98;;;12.15;;
24713;SDS011;12820;51.580;5.010;2022-11-20T03:34:42;26.02;;;13.35;;
24713;SDS011;12820;51.580;5.010;2022-11-20T03:39:44;26.00;;;12.30;;
24713;SDS011;12820;51.580;5.010;2022-11-20T03:44:46;24.58;;;12.23;;
24713;SDS011;12820;51.580;5.010;2022-11-20T03:49:48;23.10;;;12.18;;
24713;SDS011;12820;51.580;5.010;2022-11-20T03:54:50;23.30;;;12.50;;
24713;SDS011;12820;51.580;5.010;2022-11-20T03:59:52;25.52;;;13.07;;
24713;SDS011;12820;51.580;5.010;2022-11-20T04:04:54;26.05;;;13.10;;
24713;SDS011;12820;51.580;5.010;2022-11-20T04:09:56;23.02;;;12.20;;
24713;SDS011;12820;51.580;5.010;2022-11-20T04:14:58;27.30;;;13.70;;
24713;SDS011;12820;51.580;5.010;2022-11-20T04:20:00;25.65;;;12.55;;
24713;SDS011;12820;51.580;5.010;2022-11-20T04:25:03;23.67;;;12.57;;
24713;SDS011;12820;51.580;5.010;2022-11-20T04:30:06;23.90;;;12.30;;
24713;SDS011;12820;51.580;5.010;2022-11-20T04:35:08;27.05;;;13.00;;
24713;SDS011;12820;51.580;5.010;2022-11-20T04:40:10;23.35;;;12.05;;
24713;SDS011;12820;51.580;5.010;2022-11-20T04:45:13;24.90;;;12.57;;
24713;SDS011;12820;51.580;5.010;2022-11-20T04:50:15;27.02;;;12.95;;
24713;SDS011;12820;51.580;5.010;2022-11-20T04:55:17;23.13;;;12.65;;
24713;SDS011;12820;51.580;5.010;2022-11-20T05:00:19;26.65;;;13.48;;
24713;SDS011;12820;51.580;5.010;2022-11-20T05:05:21;25.92;;;12.60;;
24713;SDS011;12820;51.580;5.010;2022-11-20T05:10:27;25.00;;;12.02;;
24713;SDS011;12820;51.580;5.010;2022-11-20T05:15:29;24.10;;;12.10;;
24713;SDS011;12820;51.580;5.010;2022-11-20T05:20:31;24.17;;;12.32;;
24713;SDS011;12820;51.580;5.010;2022-11-20T05:25:33;23.73;;;11.88;;
24713;SDS011;12820;51.580;5.010;2022-11-20T05:30:35;23.42;;;12.50;;
24713;SDS011;12820;51.580;5.010;2022-11-20T05:35:37;21.83;;;11.57;;
24713;SDS011;12820;51.580;5.010;2022-11-20T05:40:39;26.58;;;12.85;;
24713;SDS011;12820;51.580;5.010;2022-11-20T05:45:41;23.33;;;11.75;;
24713;SDS011;12820;51.580;5.010;2022-11-20T05:50:43;24.50;;;12.20;;
24713;SDS011;12820;51.580;5.010;2022-11-20T05:55:45;25.05;;;12.85;;
24713;SDS011;12820;51.580;5.010;2022-11-20T06:00:47;23.48;;;11.98;;
24713;SDS011;12820;51.580;5.010;2022-11-20T06:05:49;24.83;;;12.27;;
24713;SDS011;12820;51.580;5.010;2022-11-20T06:10:51;24.85;;;11.80;;
24713;SDS011;12820;51.580;5.010;2022-11-20T06:15:53;24.17;;;12.25;;
24713;SDS011;12820;51.580;5.010;2022-11-20T06:26:12;24.25;;;12.20;;
24713;SDS011;12820;51.580;5.010;2022-11-20T06:31:17;22.15;;;11.45;;
24713;SDS011;12820;51.580;5.010;2022-11-20T06:36:21;26.95;;;12.77;;
24713;SDS011;12820;51.580;5.010;2022-11-20T06:41:24;25.35;;;12.77;;
24713;SDS011;12820;51.580;5.010;2022-11-20T06:46:27;25.38;;;12.68;;
24713;SDS011;12820;51.580;5.010;2022-11-20T06:51:29;24.58;;;12.57;;
24713;SDS011;12820;51.580;5.010;2022-11-20T06:56:31;26.55;;;13.63;;
24713;SDS011;12820;51.580;5.010;2022-11-20T07:01:33;26.25;;;13.07;;
24713;SDS011;12820;51.580;5.010;2022-11-20T07:06:35;27.40;;;13.23;;
24713;SDS011;12820;51.580;5.010;2022-11-20T07:11:37;29.67;;;13.57;;
24713;SDS011;12820;51.580;5.010;2022-11-20T07:16:39;24.42;;;13.00;;
24713;SDS011;12820;51.580;5.010;2022-11-20T07:21:41;26.55;;;14.07;;
24713;SDS011;12820;51.580;5.010;2022-11-20T07:26:45;29.05;;;14.18;;
24713;SDS011;12820;51.580;5.010;2022-11-20T07:31:49;27.92;;;14.02;;
24713;SDS011;12820;51.580;5.010;2022-11-20T07:36:51;28.75;;;14.55;;
24713;SDS011;12820;51.580;5.010;2022-11-20T07:41:53;29.73;;;15.20;;
24713;SDS011;12820;51.580;5.010;2022-11-20T07:46:55;30.08;;;14.25;;
24713;SDS011;12820;51.580;5.010;2022-11-20T07:51:57;26.77;;;14.13;;
24713;SDS011;12820;51.580;5.010;2022-11-20T07:57:05;29.50;;;14.68;;
24713;SDS011;12820;51.580;5.010;2022-11-20T08:02:09;31.65;;;14.88;;
24713;SDS011;12820;51.580;5.010;2022-11-20T08:07:12;31.98;;;15.20;;
24713;SDS011;12820;51.580;5.010;2022-11-20T08:12:18;29.13;;;14.75;;
24713;SDS011;12820;51.580;5.010;2022-11-20T08:17:40;31.65;;;15.75;;
24713;SDS011;12820;51.580;5.010;2022-11-20T08:22:42;29.00;;;14.55;;
24713;SDS011;12820;51.580;5.010;2022-11-20T08:27:44;32.22;;;14.80;;
24713;SDS011;12820;51.580;5.010;2022-11-20T08:32:46;31.98;;;15.43;;
24713;SDS011;12820;51.580;5.010;2022-11-20T08:37:48;30.33;;;15.77;;
24713;SDS011;12820;51.580;5.010;2022-11-20T08:42:51;28.88;;;15.30;;
24713;SDS011;12820;51.580;5.010;2022-11-20T08:47:53;28.45;;;14.93;;
24713;SDS011;12820;51.580;5.010;2022-11-20T08:52:55;30.83;;;15.70;;
24713;SDS011;12820;51.580;5.010;2022-11-20T08:57:57;29.30;;;15.25;;
24713;SDS011;12820;51.580;5.010;2022-11-20T09:03:00;34.33;;;15.95;;
24713;SDS011;12820;51.580;5.010;2022-11-20T09:08:03;28.65;;;15.10;;
24713;SDS011;12820;51.580;5.010;2022-11-20T09:13:05;28.42;;;15.43;;
24713;SDS011;12820;51.580;5.010;2022-11-20T09:18:07;31.77;;;16.60;;
24713;SDS011;12820;51.580;5.010;2022-11-20T09:23:10;33.53;;;16.48;;
24713;SDS011;12820;51.580;5.010;2022-11-20T09:28:12;31.85;;;16.15;;
24713;SDS011;12820;51.580;5.010;2022-11-20T09:33:14;30.17;;;16.52;;
24713;SDS011;12820;51.580;5.010;2022-11-20T09:38:16;32.08;;;16.92;;
24713;SDS011;12820;51.580;5.010;2022-11-20T09:48:29;34.08;;;17.33;;
24713;SDS011;12820;51.580;5.010;2022-11-20T09:58:50;38.13;;;17.70;;
24713;SDS011;12820;51.580;5.010;2022-11-20T10:03:55;40.33;;;18.02;;
24713;SDS011;12820;51.580;5.010;2022-11-20T10:30:15;36.47;;;17.63;;
24713;SDS011;12820;51.580;5.010;2022-11-20T10:35:24;42.15;;;18.10;;
24713;SDS011;12820;51.580;5.010;2022-11-20T10:40:40;34.47;;;17.50;;
24713;SDS011;12820;51.580;5.010;2022-11-20T10:45:57;39.80;;;19.55;;
24713;SDS011;12820;51.580;5.010;2022-11-20T10:51:08;46.13;;;20.30;;
24713;SDS011;12820;51.580;5.010;2022-11-20T10:56:19;46.03;;;20.83;;
24713;SDS011;12820;51.580;5.010;2022-11-20T11:01:24;45.63;;;21.90;;
24713;SDS011;12820;51.580;5.010;2022-11-20T11:06:39;48.13;;;21.40;;
24713;SDS011;12820;51.580;5.010;2022-11-20T11:11:47;49.67;;;22.98;;
24713;SDS011;12820;51.580;5.010;2022-11-20T11:16:53;51.20;;;22.13;;
24713;SDS011;12820;51.580;5.010;2022-11-20T11:21:56;54.00;;;22.50;;
24713;SDS011;12820;51.580;5.010;2022-11-20T11:27:00;59.03;;;24.38;;
24713;SDS011;12820;51.580;5.010;2022-11-20T11:32:19;56.95;;;23.73;;
24713;SDS011;12820;51.580;5.010;2022-11-20T11:37:32;57.00;;;24.57;;
24713;SDS011;12820;51.580;5.010;2022-11-20T11:42:41;54.15;;;24.77;;
24713;SDS011;12820;51.580;5.010;2022-11-20T11:47:50;57.17;;;24.67;;
24713;SDS011;12820;51.580;5.010;2022-11-20T11:53:13;60.35;;;25.70;;
24713;SDS011;12820;51.580;5.010;2022-11-20T12:03:24;59.22;;;27.98;;
24713;SDS011;12820;51.580;5.010;2022-11-20T12:08:32;57.42;;;24.85;;
24713;SDS011;12820;51.580;5.010;2022-11-20T12:13:50;57.05;;;24.60;;
24713;SDS011;12820;51.580;5.010;2022-11-20T12:18:57;54.97;;;24.50;;
24713;SDS011;12820;51.580;5.010;2022-11-20T12:24:03;56.38;;;23.95;;
24713;SDS011;12820;51.580;5.010;2022-11-20T12:29:30;52.67;;;24.20;;
24713;SDS011;12820;51.580;5.010;2022-11-20T12:40:41;55.25;;;24.27;;
24713;SDS011;12820;51.580;5.010;2022-11-20T12:45:55;52.47;;;24.15;;
24713;SDS011;12820;51.580;5.010;2022-11-20T13:07:35;58.10;;;25.02;;
24713;SDS011;12820;51.580;5.010;2022-11-20T13:12:42;60.60;;;26.33;;
24713;SDS011;12820;51.580;5.010;2022-11-20T13:17:54;58.33;;;26.08;;
24713;SDS011;12820;51.580;5.010;2022-11-20T13:23:00;57.03;;;24.42;;
24713;SDS011;12820;51.580;5.010;2022-11-20T13:28:25;61.20;;;24.65;;
24713;SDS011;12820;51.580;5.010;2022-11-20T13:33:34;54.17;;;23.40;;
24713;SDS011;12820;51.580;5.010;2022-11-20T13:38:46;60.50;;;25.70;;
24713;SDS011;12820;51.580;5.010;2022-11-20T13:43:51;58.78;;;24.85;;
24713;SDS011;12820;51.580;5.010;2022-11-20T13:49:05;61.92;;;25.40;;
24713;SDS011;12820;51.580;5.010;2022-11-20T13:54:22;62.70;;;24.95;;
24713;SDS011;12820;51.580;5.010;2022-11-20T14:04:56;64.82;;;25.63;;
24713;SDS011;12820;51.580;5.010;2022-11-20T14:10:00;65.25;;;25.10;;
24713;SDS011;12820;51.580;5.010;2022-11-20T14:15:02;66.93;;;27.02;;
24713;SDS011;12820;51.580;5.010;2022-11-20T14:20:05;58.13;;;24.17;;
24713;SDS011;12820;51.580;5.010;2022-11-20T14:30:22;61.95;;;23.80;;
24713;SDS011;12820;51.580;5.010;2022-11-20T14:35:30;63.78;;;24.50;;
24713;SDS011;12820;51.580;5.010;2022-11-20T14:40:36;68.45;;;24.05;;
24713;SDS011;12820;51.580;5.010;2022-11-20T14:45:38;67.20;;;24.55;;
24713;SDS011;12820;51.580;5.010;2022-11-20T14:50:40;86.22;;;27.20;;
24713;SDS011;12820;51.580;5.010;2022-11-20T14:55:42;67.82;;;24.48;;
24713;SDS011;12820;51.580;5.010;2022-11-20T15:00:52;66.55;;;24.77;;
24713;SDS011;12820;51.580;5.010;2022-11-20T15:06:01;67.30;;;24.45;;
24713;SDS011;12820;51.580;5.010;2022-11-20T15:11:14;67.93;;;25.23;;
24713;SDS011;12820;51.580;5.010;2022-11-20T15:16:20;76.45;;;25.65;;
24713;SDS011;12820;51.580;5.010;2022-11-20T15:21:25;66.80;;;25.30;;
24713;SDS011;12820;51.580;5.010;2022-11-20T15:26:27;61.90;;;23.77;;
24713;SDS011;12820;51.580;5.010;2022-11-20T15:31:29;55.88;;;22.70;;
24713;SDS011;12820;51.580;5.010;2022-11-20T15:36:31;61.60;;;22.55;;
24713;SDS011;12820;51.580;5.010;2022-11-20T15:41:34;64.82;;;22.70;;
24713;SDS011;12820;51.580;5.010;2022-11-20T15:46:37;67.32;;;24.33;;
24713;SDS011;12820;51.580;5.010;2022-11-20T15:51:44;61.17;;;21.10;;
24713;SDS011;12820;51.580;5.010;2022-11-20T15:56:49;58.45;;;21.70;;
24713;SDS011;12820;51.580;5.010;2022-11-20T16:01:54;44.03;;;18.40;;
24713;SDS011;12820;51.580;5.010;2022-11-20T16:06:56;45.88;;;18.10;;
24713;SDS011;12820;51.580;5.010;2022-11-20T16:11:58;43.47;;;17.42;;
24713;SDS011;12820;51.580;5.010;2022-11-20T16:17:03;44.03;;;16.55;;
24713;SDS011;12820;51.580;5.010;2022-11-20T16:22:05;33.70;;;15.30;;
24713;SDS011;12820;51.580;5.010;2022-11-20T16:27:07;28.27;;;12.98;;
24713;SDS011;12820;51.580;5.010;2022-11-20T16:32:10;33.25;;;15.98;;
24713;SDS011;12820;51.580;5.010;2022-11-20T16:37:14;21.63;;;12.02;;
24713;SDS011;12820;51.580;5.010;2022-11-20T16:42:16;19.63;;;11.13;;
24713;SDS011;12820;51.580;5.010;2022-11-20T16:47:18;22.23;;;12.02;;
24713;SDS011;12820;51.580;5.010;2022-11-20T16:52:20;25.13;;;12.63;;
24713;SDS011;12820;51.580;5.010;2022-11-20T16:57:22;21.20;;;13.18;;
24713;SDS011;12820;51.580;5.010;2022-11-20T17:02:24;25.35;;;13.55;;
24713;SDS011;12820;51.580;5.010;2022-11-20T17:07:26;26.10;;;12.50;;
24713;SDS011;12820;51.580;5.010;2022-11-20T17:12:28;26.13;;;11.98;;
24713;SDS011;12820;51.580;5.010;2022-11-20T17:17:30;21.60;;;8.85;;
24713;SDS011;12820;51.580;5.010;2022-11-20T17:22:32;26.77;;;9.73;;
24713;SDS011;12820;51.580;5.010;2022-11-20T17:27:34;19.50;;;7.63;;
24713;SDS011;12820;51.580;5.010;2022-11-20T17:32:36;16.75;;;7.40;;
24713;SDS011;12820;51.580;5.010;2022-11-20T17:37:38;11.98;;;5.40;;
24713;SDS011;12820;51.580;5.010;2022-11-20T17:42:40;16.92;;;8.15;;
24713;SDS011;12820;51.580;5.010;2022-11-20T17:47:43;18.15;;;9.07;;
24713;SDS011;12820;51.580;5.010;2022-11-20T17:52:47;20.33;;;9.75;;
24713;SDS011;12820;51.580;5.010;2022-11-20T17:57:49;28.27;;;13.90;;
24713;SDS011;12820;51.580;5.010;2022-11-20T18:02:54;32.10;;;12.57;;
24713;SDS011;12820;51.580;5.010;2022-11-20T18:07:56;24.90;;;11.32;;
24713;SDS011;12820;51.580;5.010;2022-11-20T18:12:58;32.47;;;14.65;;
24713;SDS011;12820;51.580;5.010;2022-11-20T18:18:00;29.02;;;13.55;;
24713;SDS011;12820;51.580;5.010;2022-11-20T18:23:02;22.40;;;10.45;;
24713;SDS011;12820;51.580;5.010;2022-11-20T18:28:05;22.95;;;10.18;;
24713;SDS011;12820;51.580;5.010;2022-11-20T18:33:08;26.90;;;13.95;;
24713;SDS011;12820;51.580;5.010;2022-11-20T18:38:10;22.48;;;12.38;;
24713;SDS011;12820;51.580;5.010;2022-11-20T18:43:12;29.55;;;13.50;;
24713;SDS011;12820;51.580;5.010;2022-11-20T18:48:32;31.27;;;17.20;;
24713;SDS011;12820;51.580;5.010;2022-11-20T18:53:34;30.95;;;15.45;;
24713;SDS011;12820;51.580;5.010;2022-11-20T18:58:36;35.17;;;16.60;;
24713;SDS011;12820;51.580;5.010;2022-11-20T19:03:39;29.52;;;16.17;;
24713;SDS011;12820;51.580;5.010;2022-11-20T19:08:41;31.25;;;16.50;;
24713;SDS011;12820;51.580;5.010;2022-11-20T19:13:43;28.60;;;14.95;;
24713;SDS011;12820;51.580;5.010;2022-11-20T19:18:46;33.28;;;16.70;;
24713;SDS011;12820;51.580;5.010;2022-11-20T19:23:53;36.17;;;16.63;;
24713;SDS011;12820;51.580;5.010;2022-11-20T19:28:56;36.47;;;17.08;;
24713;SDS011;12820;51.580;5.010;2022-11-20T19:34:00;32.38;;;15.73;;
24713;SDS011;12820;51.580;5.010;2022-11-20T19:39:04;31.40;;;16.90;;
24713;SDS011;12820;51.580;5.010;2022-11-20T19:44:09;34.13;;;17.13;;
24713;SDS011;12820;51.580;5.010;2022-11-20T19:49:13;32.65;;;16.33;;
24713;SDS011;12820;51.580;5.010;2022-11-20T19:54:15;29.52;;;15.23;;
24713;SDS011;12820;51.580;5.010;2022-11-20T19:59:18;34.22;;;16.33;;
24713;SDS011;12820;51.580;5.010;2022-11-20T20:04:20;34.22;;;15.35;;
24713;SDS011;12820;51.580;5.010;2022-11-20T20:09:22;37.50;;;16.60;;
24713;SDS011;12820;51.580;5.010;2022-11-20T20:14:30;29.13;;;15.48;;
24713;SDS011;12820;51.580;5.010;2022-11-20T20:19:55;29.65;;;14.30;;
24713;SDS011;12820;51.580;5.010;2022-11-20T20:30:31;50.38;;;19.05;;
24713;SDS011;12820;51.580;5.010;2022-11-20T20:41:11;39.38;;;18.42;;
24713;SDS011;12820;51.580;5.010;2022-11-20T20:46:13;34.40;;;17.92;;
24713;SDS011;12820;51.580;5.010;2022-11-20T20:51:15;37.65;;;17.35;;
24713;SDS011;12820;51.580;5.010;2022-11-20T20:56:18;33.05;;;17.10;;
24713;SDS011;12820;51.580;5.010;2022-11-20T21:01:20;38.78;;;16.15;;
24713;SDS011;12820;51.580;5.010;2022-11-20T21:06:24;36.00;;;15.13;;
24713;SDS011;12820;51.580;5.010;2022-11-20T21:11:26;38.25;;;16.00;;
24713;SDS011;12820;51.580;5.010;2022-11-20T21:16:28;32.15;;;15.57;;
24713;SDS011;12820;51.580;5.010;2022-11-20T21:21:41;31.52;;;12.75;;
24713;SDS011;12820;51.580;5.010;2022-11-20T21:27:03;28.23;;;10.90;;
24713;SDS011;12820;51.580;5.010;2022-11-20T21:32:06;32.85;;;10.73;;
24713;SDS011;12820;51.580;5.010;2022-11-20T21:37:08;28.52;;;8.82;;
24713;SDS011;12820;51.580;5.010;2022-11-20T21:42:10;26.70;;;7.63;;
24713;SDS011;12820;51.580;5.010;2022-11-20T21:47:12;27.23;;;6.32;;
24713;SDS011;12820;51.580;5.010;2022-11-20T21:52:14;26.00;;;5.40;;
24713;SDS011;12820;51.580;5.010;2022-11-20T21:57:16;19.08;;;8.02;;
24713;SDS011;12820;51.580;5.010;2022-11-20T22:02:18;28.17;;;4.82;;
24713;SDS011;12820;51.580;5.010;2022-11-20T22:07:21;17.75;;;6.00;;
24713;SDS011;12820;51.580;5.010;2022-11-20T22:12:23;17.10;;;4.30;;
24713;SDS011;12820;51.580;5.010;2022-11-20T22:17:25;27.25;;;4.03;;
24713;SDS011;12820;51.580;5.010;2022-11-20T22:22:46;26.15;;;4.05;;
24713;SDS011;12820;51.580;5.010;2022-11-20T22:27:48;22.70;;;4.30;;
24713;SDS011;12820;51.580;5.010;2022-11-20T22:32:50;24.42;;;3.17;;
24713;SDS011;12820;51.580;5.010;2022-11-20T22:37:54;27.95;;;5.25;;
24713;SDS011;12820;51.580;5.010;2022-11-20T22:42:56;23.23;;;6.88;;
24713;SDS011;12820;51.580;5.010;2022-11-20T22:47:58;21.90;;;7.10;;
24713;SDS011;12820;51.580;5.010;2022-11-20T22:53:01;21.60;;;5.22;;
24713;SDS011;12820;51.580;5.010;2022-11-20T22:58:03;17.25;;;3.28;;
24713;SDS011;12820;51.580;5.010;2022-11-20T23:03:05;17.75;;;3.83;;
24713;SDS011;12820;51.580;5.010;2022-11-20T23:08:07;12.75;;;4.57;;
24713;SDS011;12820;51.580;5.010;2022-11-20T23:13:09;14.80;;;4.85;;
24713;SDS011;12820;51.580;5.010;2022-11-20T23:18:11;23.70;;;5.15;;
24713;SDS011;12820;51.580;5.010;2022-11-20T23:23:13;15.65;;;4.47;;
24713;SDS011;12820;51.580;5.010;2022-11-20T23:28:15;26.00;;;4.70;;
24713;SDS011;12820;51.580;5.010;2022-11-20T23:33:17;20.20;;;4.43;;
24713;SDS011;12820;51.580;5.010;2022-11-20T23:38:19;18.45;;;4.05;;
24713;SDS011;12820;51.580;5.010;2022-11-20T23:43:22;13.98;;;3.60;;
24713;SDS011;12820;51.580;5.010;2022-11-20T23:48:25;11.30;;;3.50;;
24713;SDS011;12820;51.580;5.010;2022-11-20T23:53:29;18.08;;;3.33;;
24713;SDS011;12820;51.580;5.010;2022-11-20T23:58:35;16.30;;;3.67;;
